sensor_id;sensor_type;location;lat;lon;timestamp;temperature;humidity
65040;HTU21D;51606;45.000;38.612;2024-03-07T04:52:42;2.99;76.22
65040;HTU21D;51606;45.000;38.612;2024-03-07T04:55:10;3.00;76.21
65040;HTU21D;51606;45.000;38.612;2024-03-07T04:57:39;3.02;76.24
65040;HTU21D;51606;45.000;38.612;2024-03-07T05:00:11;3.03;76.26
65040;HTU21D;51606;45.000;38.612;2024-03-07T05:02:44;3.04;76.26
65040;HTU21D;51606;45.000;38.612;2024-03-07T05:05:11;3.08;76.22
65040;HTU21D;51606;45.000;38.612;2024-03-07T05:07:39;3.10;76.20
65040;HTU21D;51606;45.000;38.612;2024-03-07T05:10:07;3.11;76.18
65040;HTU21D;51606;45.000;38.612;2024-03-07T05:12:33;3.14;76.14
65040;HTU21D;51606;45.000;38.612;2024-03-07T05:15:00;3.17;76.11
65040;HTU21D;51606;45.000;38.612;2024-03-07T05:17:26;3.18;76.14
65040;HTU21D;51606;45.000;38.612;2024-03-07T05:19:54;3.19;76.12
65040;HTU21D;51606;45.000;38.612;2024-03-07T05:22:20;3.21;76.18
65040;HTU21D;51606;45.000;38.612;2024-03-07T05:24:51;3.19;76.16
65040;HTU21D;51606;45.000;38.612;2024-03-07T05:27:17;3.17;76.22
65040;HTU21D;51606;45.000;38.612;2024-03-07T05:29:43;3.15;76.31
65040;HTU21D;51606;45.000;38.612;2024-03-07T05:32:23;3.11;76.36
65040;HTU21D;51606;45.000;38.612;2024-03-07T05:34:52;3.11;76.37
65040;HTU21D;51606;45.000;38.612;2024-03-07T05:37:21;3.12;76.35
65040;HTU21D;51606;45.000;38.612;2024-03-07T05:39:48;3.13;76.38
65040;HTU21D;51606;45.000;38.612;2024-03-07T05:42:15;3.16;76.31
65040;HTU21D;51606;45.000;38.612;2024-03-07T05:44:42;3.18;76.29
65040;HTU21D;51606;45.000;38.612;2024-03-07T05:47:08;3.18;76.31
65040;HTU21D;51606;45.000;38.612;2024-03-07T05:49:36;3.17;76.39
65040;HTU21D;51606;45.000;38.612;2024-03-07T05:52:05;3.16;76.37
65040;HTU21D;51606;45.000;38.612;2024-03-07T05:54:32;3.15;76.45
65040;HTU21D;51606;45.000;38.612;2024-03-07T05:56:59;3.14;76.42
65040;HTU21D;51606;45.000;38.612;2024-03-07T05:59:26;3.17;76.40
65040;HTU21D;51606;45.000;38.612;2024-03-07T06:01:57;3.17;76.41
65040;HTU21D;51606;45.000;38.612;2024-03-07T06:04:23;3.16;76.38
65040;HTU21D;51606;45.000;38.612;2024-03-07T06:06:49;3.16;76.42
65040;HTU21D;51606;45.000;38.612;2024-03-07T06:09:16;3.16;76.36
65040;HTU21D;51606;45.000;38.612;2024-03-07T06:11:48;3.16;76.33
65040;HTU21D;51606;45.000;38.612;2024-03-07T06:14:14;3.16;76.34
65040;HTU21D;51606;45.000;38.612;2024-03-07T06:16:42;3.14;76.36
65040;HTU21D;51606;45.000;38.612;2024-03-07T06:19:09;3.13;76.35
65040;HTU21D;51606;45.000;38.612;2024-03-07T06:21:36;3.14;76.43
65040;HTU21D;51606;45.000;38.612;2024-03-07T06:24:03;3.15;76.51
65040;HTU21D;51606;45.000;38.612;2024-03-07T06:26:32;3.13;76.45
65040;HTU21D;51606;45.000;38.612;2024-03-07T06:29:07;3.11;76.45
65040;HTU21D;51606;45.000;38.612;2024-03-07T06:31:34;3.11;76.54
65040;HTU21D;51606;45.000;38.612;2024-03-07T06:34:03;3.09;76.51
65040;HTU21D;51606;45.000;38.612;2024-03-07T06:36:30;3.05;76.44
65040;HTU21D;51606;45.000;38.612;2024-03-07T06:38:56;3.05;76.47
65040;HTU21D;51606;45.000;38.612;2024-03-07T06:41:23;3.05;76.44
65040;HTU21D;51606;45.000;38.612;2024-03-07T06:43:51;3.05;76.44
65040;HTU21D;51606;45.000;38.612;2024-03-07T06:46:21;3.04;76.50
65040;HTU21D;51606;45.000;38.612;2024-03-07T06:48:47;3.03;76.47
65040;HTU21D;51606;45.000;38.612;2024-03-07T06:51:14;3.03;76.53
65040;HTU21D;51606;45.000;38.612;2024-03-07T06:53:40;3.02;76.48
65040;HTU21D;51606;45.000;38.612;2024-03-07T06:56:06;3.08;76.47
65040;HTU21D;51606;45.000;38.612;2024-03-07T06:58:33;3.10;76.44
65040;HTU21D;51606;45.000;38.612;2024-03-07T07:00:59;3.12;76.37
65040;HTU21D;51606;45.000;38.612;2024-03-07T07:03:27;3.14;76.30
65040;HTU21D;51606;45.000;38.612;2024-03-07T07:05:58;3.17;76.26
65040;HTU21D;51606;45.000;38.612;2024-03-07T07:08:24;3.19;76.32
65040;HTU21D;51606;45.000;38.612;2024-03-07T07:10:51;3.20;76.33
65040;HTU21D;51606;45.000;38.612;2024-03-07T07:13:20;3.21;76.31
65040;HTU21D;51606;45.000;38.612;2024-03-07T07:15:46;3.24;76.31
65040;HTU21D;51606;45.000;38.612;2024-03-07T07:18:12;3.25;76.30
65040;HTU21D;51606;45.000;38.612;2024-03-07T07:20:40;3.24;76.30
65040;HTU21D;51606;45.000;38.612;2024-03-07T07:23:06;3.26;76.29
65040;HTU21D;51606;45.000;38.612;2024-03-07T07:25:32;3.28;76.28
65040;HTU21D;51606;45.000;38.612;2024-03-07T07:27:59;3.32;76.20
65040;HTU21D;51606;45.000;38.612;2024-03-07T07:30:26;3.35;76.15
65040;HTU21D;51606;45.000;38.612;2024-03-07T07:32:53;3.36;76.16
65040;HTU21D;51606;45.000;38.612;2024-03-07T07:35:20;3.36;76.15
65040;HTU21D;51606;45.000;38.612;2024-03-07T07:37:51;3.41;76.14
65040;HTU21D;51606;45.000;38.612;2024-03-07T07:40:21;3.44;76.12
65040;HTU21D;51606;45.000;38.612;2024-03-07T07:42:50;3.49;76.07
65040;HTU21D;51606;45.000;38.612;2024-03-07T07:45:21;3.53;76.02
65040;HTU21D;51606;45.000;38.612;2024-03-07T07:47:52;3.57;76.02
65040;HTU21D;51606;45.000;38.612;2024-03-07T07:50:21;3.63;76.02
65040;HTU21D;51606;45.000;38.612;2024-03-07T07:55:17;3.73;75.97
65040;HTU21D;51606;45.000;38.612;2024-03-07T07:57:44;3.75;75.96
65040;HTU21D;51606;45.000;38.612;2024-03-07T08:00:15;3.80;75.97
65040;HTU21D;51606;45.000;38.612;2024-03-07T08:03:00;3.87;75.95
65040;HTU21D;51606;45.000;38.612;2024-03-07T08:05:32;3.87;75.95
65040;HTU21D;51606;45.000;38.612;2024-03-07T08:08:08;3.87;76.05
65040;HTU21D;51606;45.000;38.612;2024-03-07T08:10:38;3.88;76.02
65040;HTU21D;51606;45.000;38.612;2024-03-07T08:13:05;3.90;76.05
65040;HTU21D;51606;45.000;38.612;2024-03-07T08:15:36;3.91;76.14
65040;HTU21D;51606;45.000;38.612;2024-03-07T08:18:02;3.93;76.16
65040;HTU21D;51606;45.000;38.612;2024-03-07T08:20:34;3.95;76.19
65040;HTU21D;51606;45.000;38.612;2024-03-07T08:23:04;4.00;76.12
65040;HTU21D;51606;45.000;38.612;2024-03-07T08:25:30;4.03;76.06
65040;HTU21D;51606;45.000;38.612;2024-03-07T08:27:57;4.06;76.08
65040;HTU21D;51606;45.000;38.612;2024-03-07T08:30:24;4.06;76.03
65040;HTU21D;51606;45.000;38.612;2024-03-07T08:32:53;4.07;76.08
65040;HTU21D;51606;45.000;38.612;2024-03-07T08:35:21;4.10;76.08
65040;HTU21D;51606;45.000;38.612;2024-03-07T08:37:49;4.14;76.08
65040;HTU21D;51606;45.000;38.612;2024-03-07T08:40:19;4.18;75.98
65040;HTU21D;51606;45.000;38.612;2024-03-07T08:42:47;4.22;75.90
65040;HTU21D;51606;45.000;38.612;2024-03-07T08:45:14;4.24;75.92
65040;HTU21D;51606;45.000;38.612;2024-03-07T08:47:50;4.23;75.92
65040;HTU21D;51606;45.000;38.612;2024-03-07T08:50:17;4.23;75.94
65040;HTU21D;51606;45.000;38.612;2024-03-07T08:52:45;4.23;75.94
65040;HTU21D;51606;45.000;38.612;2024-03-07T08:55:13;4.21;75.99
65040;HTU21D;51606;45.000;38.612;2024-03-07T08:57:41;4.19;76.02
65040;HTU21D;51606;45.000;38.612;2024-03-07T09:00:08;4.18;76.02
65040;HTU21D;51606;45.000;38.612;2024-03-07T09:02:38;4.19;76.15
65040;HTU21D;51606;45.000;38.612;2024-03-07T09:05:05;4.19;76.12
65040;HTU21D;51606;45.000;38.612;2024-03-07T09:07:32;4.18;76.02
65040;HTU21D;51606;45.000;38.612;2024-03-07T09:09:59;4.15;76.05
65040;HTU21D;51606;45.000;38.612;2024-03-07T09:12:25;4.18;76.04
65040;HTU21D;51606;45.000;38.612;2024-03-07T09:14:52;4.21;76.04
65040;HTU21D;51606;45.000;38.612;2024-03-07T09:17:18;4.22;76.05
65040;HTU21D;51606;45.000;38.612;2024-03-07T09:19:45;4.28;76.02
65040;HTU21D;51606;45.000;38.612;2024-03-07T09:22:11;4.30;75.94
65040;HTU21D;51606;45.000;38.612;2024-03-07T09:24:37;4.31;75.95
65040;HTU21D;51606;45.000;38.612;2024-03-07T09:27:04;4.33;75.95
65040;HTU21D;51606;45.000;38.612;2024-03-07T09:29:30;4.36;75.92
65040;HTU21D;51606;45.000;38.612;2024-03-07T09:31:57;4.38;75.89
65040;HTU21D;51606;45.000;38.612;2024-03-07T09:34:24;4.39;75.86
65040;HTU21D;51606;45.000;38.612;2024-03-07T09:36:51;4.43;75.84
65040;HTU21D;51606;45.000;38.612;2024-03-07T09:39:18;4.45;75.82
65040;HTU21D;51606;45.000;38.612;2024-03-07T09:41:45;4.46;75.82
65040;HTU21D;51606;45.000;38.612;2024-03-07T09:44:14;4.51;75.79
65040;HTU21D;51606;45.000;38.612;2024-03-07T09:46:54;4.52;75.73
65040;HTU21D;51606;45.000;38.612;2024-03-07T09:49:21;4.59;75.73
65040;HTU21D;51606;45.000;38.612;2024-03-07T09:51:51;4.68;75.60
65040;HTU21D;51606;45.000;38.612;2024-03-07T09:54:22;4.76;75.56
65040;HTU21D;51606;45.000;38.612;2024-03-07T09:56:54;4.84;75.46
65040;HTU21D;51606;45.000;38.612;2024-03-07T09:59:24;4.86;75.43
65040;HTU21D;51606;45.000;38.612;2024-03-07T10:01:55;4.92;75.44
65040;HTU21D;51606;45.000;38.612;2024-03-07T10:04:30;4.88;75.44
65040;HTU21D;51606;45.000;38.612;2024-03-07T10:06:57;4.84;75.48
65040;HTU21D;51606;45.000;38.612;2024-03-07T10:09:24;4.83;75.48
65040;HTU21D;51606;45.000;38.612;2024-03-07T10:12:00;4.84;75.54
65040;HTU21D;51606;45.000;38.612;2024-03-07T10:14:32;4.88;75.50
65040;HTU21D;51606;45.000;38.612;2024-03-07T10:16:58;4.89;75.50
65040;HTU21D;51606;45.000;38.612;2024-03-07T10:19:25;4.88;75.54
65040;HTU21D;51606;45.000;38.612;2024-03-07T10:21:51;4.88;75.54
65040;HTU21D;51606;45.000;38.612;2024-03-07T10:24:24;4.89;75.52
65040;HTU21D;51606;45.000;38.612;2024-03-07T10:26:50;4.89;75.57
65040;HTU21D;51606;45.000;38.612;2024-03-07T10:29:19;4.89;75.55
65040;HTU21D;51606;45.000;38.612;2024-03-07T10:31:46;4.89;75.55
65040;HTU21D;51606;45.000;38.612;2024-03-07T10:34:13;4.87;75.54
65040;HTU21D;51606;45.000;38.612;2024-03-07T10:36:43;4.87;75.54
65040;HTU21D;51606;45.000;38.612;2024-03-07T10:39:11;4.90;75.53
65040;HTU21D;51606;45.000;38.612;2024-03-07T10:41:48;4.89;75.47
65040;HTU21D;51606;45.000;38.612;2024-03-07T10:44:19;4.88;75.51
65040;HTU21D;51606;45.000;38.612;2024-03-07T10:46:52;4.90;75.49
65040;HTU21D;51606;45.000;38.612;2024-03-07T10:49:20;4.86;75.52
65040;HTU21D;51606;45.000;38.612;2024-03-07T10:52:13;4.82;75.53
65040;HTU21D;51606;45.000;38.612;2024-03-07T10:57:35;4.78;75.57
65040;HTU21D;51606;45.000;38.612;2024-03-07T11:00:08;4.79;75.58
65040;HTU21D;51606;45.000;38.612;2024-03-07T11:02:56;4.79;75.54
65040;HTU21D;51606;45.000;38.612;2024-03-07T11:05:26;4.76;75.55
65040;HTU21D;51606;45.000;38.612;2024-03-07T11:08:04;4.77;75.56
65040;HTU21D;51606;45.000;38.612;2024-03-07T11:10:38;4.82;75.50
65040;HTU21D;51606;45.000;38.612;2024-03-07T11:13:09;4.82;75.44
65040;HTU21D;51606;45.000;38.612;2024-03-07T11:15:44;4.86;75.40
65040;HTU21D;51606;45.000;38.612;2024-03-07T11:18:13;4.86;75.37
65040;HTU21D;51606;45.000;38.612;2024-03-07T11:20:40;4.84;75.39
65040;HTU21D;51606;45.000;38.612;2024-03-07T11:23:25;4.82;75.44
65040;HTU21D;51606;45.000;38.612;2024-03-07T11:26:04;4.82;75.46
65040;HTU21D;51606;45.000;38.612;2024-03-07T11:28:38;4.84;75.45
65040;HTU21D;51606;45.000;38.612;2024-03-07T11:33:38;4.88;75.36
65040;HTU21D;51606;45.000;38.612;2024-03-07T11:36:08;4.87;75.37
65040;HTU21D;51606;45.000;38.612;2024-03-07T11:38:35;4.89;75.39
65040;HTU21D;51606;45.000;38.612;2024-03-07T11:41:03;4.89;75.41
65040;HTU21D;51606;45.000;38.612;2024-03-07T11:43:32;4.90;75.39
65040;HTU21D;51606;45.000;38.612;2024-03-07T11:45:59;4.89;75.41
65040;HTU21D;51606;45.000;38.612;2024-03-07T11:48:25;4.89;75.39
65040;HTU21D;51606;45.000;38.612;2024-03-07T11:50:52;4.93;75.44
65040;HTU21D;51606;45.000;38.612;2024-03-07T11:56:40;4.98;75.28
65040;HTU21D;51606;45.000;38.612;2024-03-07T11:59:07;5.03;75.26
65040;HTU21D;51606;45.000;38.612;2024-03-07T12:01:35;5.06;75.21
65040;HTU21D;51606;45.000;38.612;2024-03-07T12:04:02;5.03;75.25
65040;HTU21D;51606;45.000;38.612;2024-03-07T12:06:31;5.04;75.30
65040;HTU21D;51606;45.000;38.612;2024-03-07T12:09:01;5.05;75.31
65040;HTU21D;51606;45.000;38.612;2024-03-07T12:11:32;5.04;75.36
65040;HTU21D;51606;45.000;38.612;2024-03-07T12:13:58;5.01;75.37
65040;HTU21D;51606;45.000;38.612;2024-03-07T12:16:25;5.04;75.39
65040;HTU21D;51606;45.000;38.612;2024-03-07T12:18:51;5.05;75.34
65040;HTU21D;51606;45.000;38.612;2024-03-07T12:21:18;5.05;75.33
65040;HTU21D;51606;45.000;38.612;2024-03-07T12:23:46;5.06;75.34
65040;HTU21D;51606;45.000;38.612;2024-03-07T12:26:12;5.04;75.38
65040;HTU21D;51606;45.000;38.612;2024-03-07T12:28:42;5.02;75.42
65040;HTU21D;51606;45.000;38.612;2024-03-07T12:31:10;5.02;75.41
65040;HTU21D;51606;45.000;38.612;2024-03-07T12:33:42;5.01;75.43
65040;HTU21D;51606;45.000;38.612;2024-03-07T12:36:12;5.00;75.38
65040;HTU21D;51606;45.000;38.612;2024-03-07T12:38:39;4.98;75.41
65040;HTU21D;51606;45.000;38.612;2024-03-07T12:41:08;4.97;75.41
65040;HTU21D;51606;45.000;38.612;2024-03-07T12:43:44;4.94;75.47
65040;HTU21D;51606;45.000;38.612;2024-03-07T12:46:14;4.92;75.47
65040;HTU21D;51606;45.000;38.612;2024-03-07T12:48:43;4.88;75.53
65040;HTU21D;51606;45.000;38.612;2024-03-07T12:51:11;4.86;75.54
65040;HTU21D;51606;45.000;38.612;2024-03-07T12:53:42;4.82;75.56
65040;HTU21D;51606;45.000;38.612;2024-03-07T12:56:09;4.80;75.60
65040;HTU21D;51606;45.000;38.612;2024-03-07T12:58:35;4.77;75.61
65040;HTU21D;51606;45.000;38.612;2024-03-07T13:01:02;4.75;75.60
65040;HTU21D;51606;45.000;38.612;2024-03-07T13:03:28;4.69;75.68
65040;HTU21D;51606;45.000;38.612;2024-03-07T13:05:56;4.67;75.70
65040;HTU21D;51606;45.000;38.612;2024-03-07T13:08:27;4.64;75.73
65040;HTU21D;51606;45.000;38.612;2024-03-07T13:10:55;4.64;75.66
65040;HTU21D;51606;45.000;38.612;2024-03-07T13:13:22;4.63;75.72
65040;HTU21D;51606;45.000;38.612;2024-03-07T13:15:48;4.59;75.74
65040;HTU21D;51606;45.000;38.612;2024-03-07T13:18:15;4.56;75.78
65040;HTU21D;51606;45.000;38.612;2024-03-07T13:20:42;4.56;75.77
65040;HTU21D;51606;45.000;38.612;2024-03-07T13:23:11;4.56;75.76
65040;HTU21D;51606;45.000;38.612;2024-03-07T13:25:38;4.52;75.80
65040;HTU21D;51606;45.000;38.612;2024-03-07T13:28:06;4.50;75.79
65040;HTU21D;51606;45.000;38.612;2024-03-07T13:30:41;4.47;75.82
65040;HTU21D;51606;45.000;38.612;2024-03-07T13:33:10;4.44;75.88
65040;HTU21D;51606;45.000;38.612;2024-03-07T13:35:39;4.42;75.90
65040;HTU21D;51606;45.000;38.612;2024-03-07T13:38:06;4.38;75.92
65040;HTU21D;51606;45.000;38.612;2024-03-07T13:40:34;4.39;75.91
65040;HTU21D;51606;45.000;38.612;2024-03-07T13:43:07;4.39;75.86
65040;HTU21D;51606;45.000;38.612;2024-03-07T13:45:34;4.37;75.89
65040;HTU21D;51606;45.000;38.612;2024-03-07T13:48:10;4.36;75.88
65040;HTU21D;51606;45.000;38.612;2024-03-07T13:50:39;4.32;75.90
65040;HTU21D;51606;45.000;38.612;2024-03-07T13:53:10;4.30;75.94
65040;HTU21D;51606;45.000;38.612;2024-03-07T13:59:21;4.29;75.95
65040;HTU21D;51606;45.000;38.612;2024-03-07T14:09:53;4.21;75.95
65040;HTU21D;51606;45.000;38.612;2024-03-07T14:12:37;4.21;75.95
65040;HTU21D;51606;45.000;38.612;2024-03-07T14:24:28;4.08;76.30
65040;HTU21D;51606;45.000;38.612;2024-03-07T14:30:27;4.01;76.31
65040;HTU21D;51606;45.000;38.612;2024-03-07T14:33:03;3.97;76.46
65040;HTU21D;51606;45.000;38.612;2024-03-07T14:36:02;3.93;76.45
65040;HTU21D;51606;45.000;38.612;2024-03-07T14:38:54;3.89;76.50
65040;HTU21D;51606;45.000;38.612;2024-03-07T14:41:48;3.87;76.45
65040;HTU21D;51606;45.000;38.612;2024-03-07T14:44:16;3.84;76.44
65040;HTU21D;51606;45.000;38.612;2024-03-07T14:46:43;3.82;76.51
65040;HTU21D;51606;45.000;38.612;2024-03-07T14:49:15;3.79;76.53
65040;HTU21D;51606;45.000;38.612;2024-03-07T14:51:44;3.77;76.49
65040;HTU21D;51606;45.000;38.612;2024-03-07T14:54:12;3.74;76.54
65040;HTU21D;51606;45.000;38.612;2024-03-07T14:56:38;3.74;76.55
65040;HTU21D;51606;45.000;38.612;2024-03-07T14:59:04;3.73;76.63
65040;HTU21D;51606;45.000;38.612;2024-03-07T15:01:32;3.72;76.65
65040;HTU21D;51606;45.000;38.612;2024-03-07T15:04:02;3.68;76.75
65040;HTU21D;51606;45.000;38.612;2024-03-07T15:06:35;3.65;76.78
65040;HTU21D;51606;45.000;38.612;2024-03-07T15:09:02;3.61;76.80
65040;HTU21D;51606;45.000;38.612;2024-03-07T15:11:33;3.59;76.79
65040;HTU21D;51606;45.000;38.612;2024-03-07T15:14:00;3.56;76.79
65040;HTU21D;51606;45.000;38.612;2024-03-07T15:16:37;3.55;76.85
65040;HTU21D;51606;45.000;38.612;2024-03-07T15:19:07;3.53;76.82
65040;HTU21D;51606;45.000;38.612;2024-03-07T15:21:37;3.52;76.82
65040;HTU21D;51606;45.000;38.612;2024-03-07T15:24:06;3.49;76.83
65040;HTU21D;51606;45.000;38.612;2024-03-07T15:26:35;3.48;76.85
65040;HTU21D;51606;45.000;38.612;2024-03-07T15:29:02;3.46;76.88
65040;HTU21D;51606;45.000;38.612;2024-03-07T15:31:29;3.45;76.90
65040;HTU21D;51606;45.000;38.612;2024-03-07T15:33:55;3.43;76.91
65040;HTU21D;51606;45.000;38.612;2024-03-07T15:36:22;3.42;76.97
65040;HTU21D;51606;45.000;38.612;2024-03-07T15:38:49;3.40;76.95
65040;HTU21D;51606;45.000;38.612;2024-03-07T15:41:15;3.39;76.96
65040;HTU21D;51606;45.000;38.612;2024-03-07T15:43:41;3.38;77.11
65040;HTU21D;51606;45.000;38.612;2024-03-07T15:46:11;3.38;77.23
65040;HTU21D;51606;45.000;38.612;2024-03-07T15:48:39;3.36;77.18
65040;HTU21D;51606;45.000;38.612;2024-03-07T15:51:06;3.34;77.17
65040;HTU21D;51606;45.000;38.612;2024-03-07T15:53:33;3.34;77.16
65040;HTU21D;51606;45.000;38.612;2024-03-07T15:56:00;3.34;77.13
65040;HTU21D;51606;45.000;38.612;2024-03-07T15:58:27;3.33;77.19
65040;HTU21D;51606;45.000;38.612;2024-03-07T16:00:53;3.34;77.27
65040;HTU21D;51606;45.000;38.612;2024-03-07T16:03:19;3.33;77.23
65040;HTU21D;51606;45.000;38.612;2024-03-07T16:05:49;3.32;77.28
65040;HTU21D;51606;45.000;38.612;2024-03-07T16:08:15;3.32;77.44
65040;HTU21D;51606;45.000;38.612;2024-03-07T16:10:44;3.29;77.47
65040;HTU21D;51606;45.000;38.612;2024-03-07T16:13:15;3.28;77.38
65040;HTU21D;51606;45.000;38.612;2024-03-07T16:15:44;3.27;77.40
65040;HTU21D;51606;45.000;38.612;2024-03-07T16:18:11;3.26;77.35
65040;HTU21D;51606;45.000;38.612;2024-03-07T16:20:38;3.25;77.32
65040;HTU21D;51606;45.000;38.612;2024-03-07T16:23:05;3.25;77.33
65040;HTU21D;51606;45.000;38.612;2024-03-07T16:25:33;3.25;77.37
65040;HTU21D;51606;45.000;38.612;2024-03-07T16:28:06;3.24;77.38
65040;HTU21D;51606;45.000;38.612;2024-03-07T16:30:33;3.24;77.40
65040;HTU21D;51606;45.000;38.612;2024-03-07T16:33:00;3.23;77.44
65040;HTU21D;51606;45.000;38.612;2024-03-07T16:35:28;3.21;77.44
65040;HTU21D;51606;45.000;38.612;2024-03-07T16:37:57;3.21;77.44
65040;HTU21D;51606;45.000;38.612;2024-03-07T16:40:29;3.20;77.41
65040;HTU21D;51606;45.000;38.612;2024-03-07T16:42:59;3.21;77.40
65040;HTU21D;51606;45.000;38.612;2024-03-07T16:45:27;3.19;77.42
65040;HTU21D;51606;45.000;38.612;2024-03-07T16:47:55;3.18;77.39
65040;HTU21D;51606;45.000;38.612;2024-03-07T16:50:27;3.17;77.42
65040;HTU21D;51606;45.000;38.612;2024-03-07T16:52:55;3.16;77.41
65040;HTU21D;51606;45.000;38.612;2024-03-07T16:55:21;3.15;77.45
65040;HTU21D;51606;45.000;38.612;2024-03-07T16:57:49;3.13;77.44
65040;HTU21D;51606;45.000;38.612;2024-03-07T17:00:21;3.12;77.44
65040;HTU21D;51606;45.000;38.612;2024-03-07T17:02:57;3.11;77.44
65040;HTU21D;51606;45.000;38.612;2024-03-07T17:05:29;3.10;77.44
65040;HTU21D;51606;45.000;38.612;2024-03-07T17:07:58;3.09;77.47
65040;HTU21D;51606;45.000;38.612;2024-03-07T17:10:28;3.09;77.45
65040;HTU21D;51606;45.000;38.612;2024-03-07T17:12:58;3.08;77.49
65040;HTU21D;51606;45.000;38.612;2024-03-07T17:15:25;3.06;77.51
65040;HTU21D;51606;45.000;38.612;2024-03-07T17:17:52;3.06;77.53
65040;HTU21D;51606;45.000;38.612;2024-03-07T17:20:20;3.05;77.52
65040;HTU21D;51606;45.000;38.612;2024-03-07T17:22:49;3.05;77.50
65040;HTU21D;51606;45.000;38.612;2024-03-07T17:25:17;3.04;77.53
65040;HTU21D;51606;45.000;38.612;2024-03-07T17:27:45;3.01;77.55
65040;HTU21D;51606;45.000;38.612;2024-03-07T17:32:45;2.97;77.54
65040;HTU21D;51606;45.000;38.612;2024-03-07T17:35:12;2.95;77.56
65040;HTU21D;51606;45.000;38.612;2024-03-07T17:37:42;2.94;77.69
65040;HTU21D;51606;45.000;38.612;2024-03-07T17:40:11;2.91;77.69
65040;HTU21D;51606;45.000;38.612;2024-03-07T17:42:46;2.89;77.78
65040;HTU21D;51606;45.000;38.612;2024-03-07T17:45:15;2.88;77.76
65040;HTU21D;51606;45.000;38.612;2024-03-07T17:47:51;2.87;77.81
65040;HTU21D;51606;45.000;38.612;2024-03-07T17:50:24;2.86;77.79
65040;HTU21D;51606;45.000;38.612;2024-03-07T17:52:53;2.85;77.81
65040;HTU21D;51606;45.000;38.612;2024-03-07T17:55:23;2.83;77.85
65040;HTU21D;51606;45.000;38.612;2024-03-07T17:57:50;2.82;77.82
65040;HTU21D;51606;45.000;38.612;2024-03-07T18:00:17;2.82;77.82
65040;HTU21D;51606;45.000;38.612;2024-03-07T18:02:56;2.81;77.91
